sensor_id;sensor_type;location;lat;lon;timestamp;P1;durP1;ratioP1;P2;durP2;ratioP2
71566;SDS011;59403;47.456;19.120;2022-07-04T00:01:42;5.62;;;3.60;;
71566;SDS011;59403;47.456;19.120;2022-07-04T00:04:10;4.17;;;3.57;;
71566;SDS011;59403;47.456;19.120;2022-07-04T00:06:37;5.12;;;3.80;;
71566;SDS011;59403;47.456;19.120;2022-07-04T00:09:04;4.60;;;3.78;;
71566;SDS011;59403;47.456;19.120;2022-07-04T00:11:31;4.82;;;4.22;;
71566;SDS011;59403;47.456;19.120;2022-07-04T00:13:58;5.20;;;4.15;;
71566;SDS011;59403;47.456;19.120;2022-07-04T00:16:25;5.67;;;4.10;;
71566;SDS011;59403;47.456;19.120;2022-07-04T00:18:52;4.35;;;3.90;;
71566;SDS011;59403;47.456;19.120;2022-07-04T00:21:20;6.68;;;4.12;;
71566;SDS011;59403;47.456;19.120;2022-07-04T00:23:47;4.32;;;3.80;;
71566;SDS011;59403;47.456;19.120;2022-07-04T00:26:15;4.35;;;3.95;;
71566;SDS011;59403;47.456;19.120;2022-07-04T00:28:42;4.37;;;3.97;;
71566;SDS011;59403;47.456;19.120;2022-07-04T00:31:09;8.68;;;4.60;;
71566;SDS011;59403;47.456;19.120;2022-07-04T00:33:36;6.60;;;4.57;;
71566;SDS011;59403;47.456;19.120;2022-07-04T00:36:03;9.63;;;5.07;;
71566;SDS011;59403;47.456;19.120;2022-07-04T00:38:31;7.00;;;5.00;;
71566;SDS011;59403;47.456;19.120;2022-07-04T00:40:59;7.33;;;4.87;;
71566;SDS011;59403;47.456;19.120;2022-07-04T00:43:26;6.80;;;4.82;;
71566;SDS011;59403;47.456;19.120;2022-07-04T00:45:54;6.45;;;5.07;;
71566;SDS011;59403;47.456;19.120;2022-07-04T00:48:21;5.97;;;4.90;;
71566;SDS011;59403;47.456;19.120;2022-07-04T00:50:48;5.07;;;4.40;;
71566;SDS011;59403;47.456;19.120;2022-07-04T00:53:15;5.13;;;4.57;;
71566;SDS011;59403;47.456;19.120;2022-07-04T00:55:46;6.37;;;4.72;;
71566;SDS011;59403;47.456;19.120;2022-07-04T00:58:13;7.12;;;4.72;;
71566;SDS011;59403;47.456;19.120;2022-07-04T01:03:53;8.52;;;4.60;;
71566;SDS011;59403;47.456;19.120;2022-07-04T01:06:21;8.97;;;4.87;;
71566;SDS011;59403;47.456;19.120;2022-07-04T01:08:49;9.23;;;4.68;;
71566;SDS011;59403;47.456;19.120;2022-07-04T01:11:17;7.20;;;4.85;;
71566;SDS011;59403;47.456;19.120;2022-07-04T01:13:44;5.65;;;4.28;;
71566;SDS011;59403;47.456;19.120;2022-07-04T01:16:11;5.70;;;4.55;;
71566;SDS011;59403;47.456;19.120;2022-07-04T01:21:06;6.63;;;4.53;;
71566;SDS011;59403;47.456;19.120;2022-07-04T01:23:36;7.43;;;4.95;;
71566;SDS011;59403;47.456;19.120;2022-07-04T01:26:03;5.97;;;4.80;;
71566;SDS011;59403;47.456;19.120;2022-07-04T01:28:33;5.80;;;4.70;;
71566;SDS011;59403;47.456;19.120;2022-07-04T01:31:01;6.35;;;4.93;;
71566;SDS011;59403;47.456;19.120;2022-07-04T01:33:28;13.07;;;4.53;;
71566;SDS011;59403;47.456;19.120;2022-07-04T01:35:56;6.80;;;4.70;;
71566;SDS011;59403;47.456;19.120;2022-07-04T01:38:24;6.10;;;5.43;;
71566;SDS011;59403;47.456;19.120;2022-07-04T01:40:52;6.90;;;4.30;;
71566;SDS011;59403;47.456;19.120;2022-07-04T01:43:19;6.90;;;4.60;;
71566;SDS011;59403;47.456;19.120;2022-07-04T01:45:46;5.00;;;4.33;;
71566;SDS011;59403;47.456;19.120;2022-07-04T01:48:13;4.87;;;4.30;;
71566;SDS011;59403;47.456;19.120;2022-07-04T01:50:40;8.82;;;5.35;;
71566;SDS011;59403;47.456;19.120;2022-07-04T01:53:13;5.30;;;4.50;;
71566;SDS011;59403;47.456;19.120;2022-07-04T01:55:45;6.20;;;4.75;;
71566;SDS011;59403;47.456;19.120;2022-07-04T01:58:12;8.23;;;4.80;;
71566;SDS011;59403;47.456;19.120;2022-07-04T02:00:39;5.70;;;4.68;;
71566;SDS011;59403;47.456;19.120;2022-07-04T02:03:25;7.28;;;5.12;;
71566;SDS011;59403;47.456;19.120;2022-07-04T02:05:52;7.37;;;5.30;;
71566;SDS011;59403;47.456;19.120;2022-07-04T02:08:19;7.22;;;5.03;;
71566;SDS011;59403;47.456;19.120;2022-07-04T02:10:47;6.57;;;4.77;;
71566;SDS011;59403;47.456;19.120;2022-07-04T02:13:14;7.57;;;4.90;;
71566;SDS011;59403;47.456;19.120;2022-07-04T02:15:41;6.22;;;5.25;;
71566;SDS011;59403;47.456;19.120;2022-07-04T02:18:08;8.15;;;4.97;;
71566;SDS011;59403;47.456;19.120;2022-07-04T02:20:37;5.28;;;4.78;;
71566;SDS011;59403;47.456;19.120;2022-07-04T02:23:04;6.70;;;5.13;;
71566;SDS011;59403;47.456;19.120;2022-07-04T02:25:32;6.18;;;5.03;;
71566;SDS011;59403;47.456;19.120;2022-07-04T02:28:01;5.53;;;4.80;;
71566;SDS011;59403;47.456;19.120;2022-07-04T02:30:27;9.57;;;5.32;;
71566;SDS011;59403;47.456;19.120;2022-07-04T02:32:54;8.20;;;5.90;;
71566;SDS011;59403;47.456;19.120;2022-07-04T02:35:21;7.70;;;5.70;;
71566;SDS011;59403;47.456;19.120;2022-07-04T02:37:55;6.40;;;5.68;;
71566;SDS011;59403;47.456;19.120;2022-07-04T02:40:40;10.13;;;5.60;;
71566;SDS011;59403;47.456;19.120;2022-07-04T02:43:10;6.85;;;5.75;;
71566;SDS011;59403;47.456;19.120;2022-07-04T02:45:43;6.28;;;5.07;;
71566;SDS011;59403;47.456;19.120;2022-07-04T02:48:14;6.20;;;4.93;;
71566;SDS011;59403;47.456;19.120;2022-07-04T02:50:49;8.45;;;5.55;;
71566;SDS011;59403;47.456;19.120;2022-07-04T02:53:17;6.80;;;5.55;;
71566;SDS011;59403;47.456;19.120;2022-07-04T02:55:56;8.80;;;5.25;;
71566;SDS011;59403;47.456;19.120;2022-07-04T02:58:37;8.65;;;5.32;;
71566;SDS011;59403;47.456;19.120;2022-07-04T03:01:04;7.40;;;5.73;;
71566;SDS011;59403;47.456;19.120;2022-07-04T03:03:35;8.68;;;5.72;;
71566;SDS011;59403;47.456;19.120;2022-07-04T03:06:06;6.00;;;5.32;;
71566;SDS011;59403;47.456;19.120;2022-07-04T03:08:47;6.47;;;5.20;;
71566;SDS011;59403;47.456;19.120;2022-07-04T03:11:25;6.65;;;5.47;;
71566;SDS011;59403;47.456;19.120;2022-07-04T03:16:39;8.25;;;6.43;;
71566;SDS011;59403;47.456;19.120;2022-07-04T03:19:09;7.57;;;5.78;;
71566;SDS011;59403;47.456;19.120;2022-07-04T03:21:40;9.57;;;6.05;;
71566;SDS011;59403;47.456;19.120;2022-07-04T03:24:19;8.35;;;5.25;;
71566;SDS011;59403;47.456;19.120;2022-07-04T03:27:07;6.63;;;5.27;;
71566;SDS011;59403;47.456;19.120;2022-07-04T03:29:48;7.70;;;6.03;;
71566;SDS011;59403;47.456;19.120;2022-07-04T03:32:18;9.75;;;6.10;;
71566;SDS011;59403;47.456;19.120;2022-07-04T03:34:47;8.10;;;6.03;;
71566;SDS011;59403;47.456;19.120;2022-07-04T03:37:13;7.95;;;5.85;;
71566;SDS011;59403;47.456;19.120;2022-07-04T03:39:40;7.43;;;5.70;;
71566;SDS011;59403;47.456;19.120;2022-07-04T03:42:07;7.22;;;5.95;;
71566;SDS011;59403;47.456;19.120;2022-07-04T03:44:34;8.80;;;5.78;;
71566;SDS011;59403;47.456;19.120;2022-07-04T03:47:03;7.12;;;5.97;;
71566;SDS011;59403;47.456;19.120;2022-07-04T03:49:30;6.53;;;5.03;;
71566;SDS011;59403;47.456;19.120;2022-07-04T03:51:57;9.27;;;5.80;;
71566;SDS011;59403;47.456;19.120;2022-07-04T03:54:24;7.62;;;5.60;;
71566;SDS011;59403;47.456;19.120;2022-07-04T03:56:53;7.55;;;5.62;;
71566;SDS011;59403;47.456;19.120;2022-07-04T03:59:20;8.18;;;5.47;;
71566;SDS011;59403;47.456;19.120;2022-07-04T04:01:47;8.55;;;5.68;;
71566;SDS011;59403;47.456;19.120;2022-07-04T04:04:15;8.13;;;5.10;;
71566;SDS011;59403;47.456;19.120;2022-07-04T04:07:00;7.68;;;5.30;;
71566;SDS011;59403;47.456;19.120;2022-07-04T04:09:27;7.47;;;5.25;;
71566;SDS011;59403;47.456;19.120;2022-07-04T04:11:54;8.48;;;5.57;;
71566;SDS011;59403;47.456;19.120;2022-07-04T04:14:21;7.12;;;5.55;;
71566;SDS011;59403;47.456;19.120;2022-07-04T04:16:49;6.57;;;5.30;;
71566;SDS011;59403;47.456;19.120;2022-07-04T04:19:18;9.00;;;5.55;;
71566;SDS011;59403;47.456;19.120;2022-07-04T04:21:45;9.77;;;5.47;;
71566;SDS011;59403;47.456;19.120;2022-07-04T04:24:12;8.25;;;4.68;;
71566;SDS011;59403;47.456;19.120;2022-07-04T04:26:39;6.97;;;5.68;;
71566;SDS011;59403;47.456;19.120;2022-07-04T04:29:06;8.30;;;5.63;;
71566;SDS011;59403;47.456;19.120;2022-07-04T04:31:33;5.80;;;4.57;;
71566;SDS011;59403;47.456;19.120;2022-07-04T04:34:01;7.40;;;5.03;;
71566;SDS011;59403;47.456;19.120;2022-07-04T04:36:29;8.10;;;5.47;;
71566;SDS011;59403;47.456;19.120;2022-07-04T04:38:56;8.45;;;5.40;;
71566;SDS011;59403;47.456;19.120;2022-07-04T04:41:24;7.77;;;5.37;;
71566;SDS011;59403;47.456;19.120;2022-07-04T04:43:51;6.95;;;5.57;;
71566;SDS011;59403;47.456;19.120;2022-07-04T04:46:18;7.50;;;5.00;;
71566;SDS011;59403;47.456;19.120;2022-07-04T04:48:47;6.40;;;5.22;;
71566;SDS011;59403;47.456;19.120;2022-07-04T04:51:14;8.45;;;5.45;;
71566;SDS011;59403;47.456;19.120;2022-07-04T04:53:42;10.67;;;6.70;;
71566;SDS011;59403;47.456;19.120;2022-07-04T04:56:09;9.50;;;5.90;;
71566;SDS011;59403;47.456;19.120;2022-07-04T04:58:36;9.95;;;6.18;;
71566;SDS011;59403;47.456;19.120;2022-07-04T05:01:05;12.32;;;6.68;;
71566;SDS011;59403;47.456;19.120;2022-07-04T05:03:32;8.70;;;6.28;;
71566;SDS011;59403;47.456;19.120;2022-07-04T05:05:58;11.27;;;5.77;;
71566;SDS011;59403;47.456;19.120;2022-07-04T05:08:25;12.82;;;6.15;;
71566;SDS011;59403;47.456;19.120;2022-07-04T05:10:54;14.82;;;5.65;;
71566;SDS011;59403;47.456;19.120;2022-07-04T05:13:21;13.27;;;5.57;;
71566;SDS011;59403;47.456;19.120;2022-07-04T05:15:48;10.57;;;5.45;;
71566;SDS011;59403;47.456;19.120;2022-07-04T05:18:14;17.00;;;6.03;;
71566;SDS011;59403;47.456;19.120;2022-07-04T05:20:41;12.82;;;5.82;;
71566;SDS011;59403;47.456;19.120;2022-07-04T05:23:08;13.68;;;5.72;;
71566;SDS011;59403;47.456;19.120;2022-07-04T05:25:35;9.68;;;5.78;;
71566;SDS011;59403;47.456;19.120;2022-07-04T05:28:03;8.35;;;5.72;;
71566;SDS011;59403;47.456;19.120;2022-07-04T05:30:31;8.13;;;5.63;;
71566;SDS011;59403;47.456;19.120;2022-07-04T05:32:57;9.73;;;6.30;;
71566;SDS011;59403;47.456;19.120;2022-07-04T05:35:25;9.40;;;6.60;;
71566;SDS011;59403;47.456;19.120;2022-07-04T05:37:53;9.63;;;5.60;;
71566;SDS011;59403;47.456;19.120;2022-07-04T05:40:20;6.93;;;4.97;;
71566;SDS011;59403;47.456;19.120;2022-07-04T05:42:47;5.47;;;4.80;;
71566;SDS011;59403;47.456;19.120;2022-07-04T05:45:16;8.15;;;4.60;;
71566;SDS011;59403;47.456;19.120;2022-07-04T05:47:43;5.45;;;4.68;;
71566;SDS011;59403;47.456;19.120;2022-07-04T05:50:10;7.50;;;3.65;;
71566;SDS011;59403;47.456;19.120;2022-07-04T05:52:37;6.87;;;4.10;;
71566;SDS011;59403;47.456;19.120;2022-07-04T05:55:05;5.83;;;3.60;;
71566;SDS011;59403;47.456;19.120;2022-07-04T05:57:32;3.78;;;3.47;;
71566;SDS011;59403;47.456;19.120;2022-07-04T06:00:00;3.33;;;3.00;;
71566;SDS011;59403;47.456;19.120;2022-07-04T06:02:28;4.82;;;3.25;;
71566;SDS011;59403;47.456;19.120;2022-07-04T06:04:55;4.55;;;3.37;;
71566;SDS011;59403;47.456;19.120;2022-07-04T06:07:25;3.77;;;3.37;;
71566;SDS011;59403;47.456;19.120;2022-07-04T06:10:01;4.32;;;3.20;;
71566;SDS011;59403;47.456;19.120;2022-07-04T06:12:28;4.75;;;3.20;;
71566;SDS011;59403;47.456;19.120;2022-07-04T06:14:55;3.42;;;2.87;;
71566;SDS011;59403;47.456;19.120;2022-07-04T06:17:25;4.10;;;2.95;;
71566;SDS011;59403;47.456;19.120;2022-07-04T06:19:54;3.37;;;3.07;;
71566;SDS011;59403;47.456;19.120;2022-07-04T06:22:21;3.37;;;3.00;;
71566;SDS011;59403;47.456;19.120;2022-07-04T06:24:48;3.15;;;2.85;;
71566;SDS011;59403;47.456;19.120;2022-07-04T06:27:15;3.08;;;2.78;;
71566;SDS011;59403;47.456;19.120;2022-07-04T06:29:41;4.93;;;2.78;;
71566;SDS011;59403;47.456;19.120;2022-07-04T06:32:08;3.97;;;2.97;;
71566;SDS011;59403;47.456;19.120;2022-07-04T06:34:35;3.30;;;3.00;;
71566;SDS011;59403;47.456;19.120;2022-07-04T06:37:21;3.15;;;2.85;;
71566;SDS011;59403;47.456;19.120;2022-07-04T06:39:48;4.87;;;3.17;;
71566;SDS011;59403;47.456;19.120;2022-07-04T06:42:15;3.28;;;2.45;;
71566;SDS011;59403;47.456;19.120;2022-07-04T06:44:41;3.17;;;2.50;;
71566;SDS011;59403;47.456;19.120;2022-07-04T06:47:08;3.15;;;2.60;;
71566;SDS011;59403;47.456;19.120;2022-07-04T06:49:35;3.83;;;2.92;;
71566;SDS011;59403;47.456;19.120;2022-07-04T06:52:03;6.22;;;3.70;;
71566;SDS011;59403;47.456;19.120;2022-07-04T06:54:50;3.62;;;3.33;;
71566;SDS011;59403;47.456;19.120;2022-07-04T06:57:17;4.23;;;2.53;;
71566;SDS011;59403;47.456;19.120;2022-07-04T06:59:44;5.80;;;2.90;;
71566;SDS011;59403;47.456;19.120;2022-07-04T07:02:14;3.25;;;2.97;;
71566;SDS011;59403;47.456;19.120;2022-07-04T07:04:41;2.75;;;2.55;;
71566;SDS011;59403;47.456;19.120;2022-07-04T07:07:08;3.35;;;2.83;;
71566;SDS011;59403;47.456;19.120;2022-07-04T07:09:35;4.43;;;2.83;;
71566;SDS011;59403;47.456;19.120;2022-07-04T07:12:04;5.30;;;2.67;;
71566;SDS011;59403;47.456;19.120;2022-07-04T07:14:31;3.75;;;2.70;;
71566;SDS011;59403;47.456;19.120;2022-07-04T07:16:58;3.33;;;2.53;;
71566;SDS011;59403;47.456;19.120;2022-07-04T07:19:25;4.05;;;2.17;;
71566;SDS011;59403;47.456;19.120;2022-07-04T07:21:52;6.00;;;2.40;;
71566;SDS011;59403;47.456;19.120;2022-07-04T07:24:19;4.78;;;2.62;;
71566;SDS011;59403;47.456;19.120;2022-07-04T07:26:46;2.87;;;2.58;;
71566;SDS011;59403;47.456;19.120;2022-07-04T07:29:14;4.25;;;2.50;;
71566;SDS011;59403;47.456;19.120;2022-07-04T07:31:41;2.65;;;2.33;;
71566;SDS011;59403;47.456;19.120;2022-07-04T07:34:08;2.90;;;2.60;;
71566;SDS011;59403;47.456;19.120;2022-07-04T07:36:35;2.70;;;2.33;;
71566;SDS011;59403;47.456;19.120;2022-07-04T07:39:02;2.70;;;2.28;;
71566;SDS011;59403;47.456;19.120;2022-07-04T07:41:29;3.45;;;2.85;;
71566;SDS011;59403;47.456;19.120;2022-07-04T07:43:56;2.97;;;2.62;;
71566;SDS011;59403;47.456;19.120;2022-07-04T07:46:24;3.13;;;2.63;;
71566;SDS011;59403;47.456;19.120;2022-07-04T07:48:51;2.42;;;2.22;;
71566;SDS011;59403;47.456;19.120;2022-07-04T07:51:18;2.53;;;2.33;;
71566;SDS011;59403;47.456;19.120;2022-07-04T07:53:49;3.15;;;2.20;;
71566;SDS011;59403;47.456;19.120;2022-07-04T07:56:16;2.05;;;1.85;;
71566;SDS011;59403;47.456;19.120;2022-07-04T07:58:43;2.73;;;2.10;;
71566;SDS011;59403;47.456;19.120;2022-07-04T08:01:10;2.95;;;2.30;;
71566;SDS011;59403;47.456;19.120;2022-07-04T08:03:39;2.20;;;1.85;;
71566;SDS011;59403;47.456;19.120;2022-07-04T08:06:23;2.67;;;2.25;;
71566;SDS011;59403;47.456;19.120;2022-07-04T08:08:50;2.22;;;2.03;;
71566;SDS011;59403;47.456;19.120;2022-07-04T08:11:17;2.70;;;2.00;;
71566;SDS011;59403;47.456;19.120;2022-07-04T08:13:44;2.08;;;1.80;;
71566;SDS011;59403;47.456;19.120;2022-07-04T08:16:11;3.17;;;1.70;;
71566;SDS011;59403;47.456;19.120;2022-07-04T08:18:39;2.75;;;2.28;;
71566;SDS011;59403;47.456;19.120;2022-07-04T08:21:06;6.03;;;2.17;;
71566;SDS011;59403;47.456;19.120;2022-07-04T08:23:33;3.33;;;2.40;;
71566;SDS011;59403;47.456;19.120;2022-07-04T08:26:01;3.22;;;2.12;;
71566;SDS011;59403;47.456;19.120;2022-07-04T08:28:29;2.05;;;1.73;;
71566;SDS011;59403;47.456;19.120;2022-07-04T08:30:57;2.85;;;2.00;;
71566;SDS011;59403;47.456;19.120;2022-07-04T08:33:24;2.50;;;2.30;;
71566;SDS011;59403;47.456;19.120;2022-07-04T08:35:53;2.30;;;2.10;;
71566;SDS011;59403;47.456;19.120;2022-07-04T08:38:24;3.53;;;1.92;;
71566;SDS011;59403;47.456;19.120;2022-07-04T08:40:51;5.47;;;2.42;;
71566;SDS011;59403;47.456;19.120;2022-07-04T08:43:23;5.28;;;2.28;;
71566;SDS011;59403;47.456;19.120;2022-07-04T08:45:52;3.58;;;2.05;;
71566;SDS011;59403;47.456;19.120;2022-07-04T08:48:21;2.50;;;2.07;;
71566;SDS011;59403;47.456;19.120;2022-07-04T08:50:54;2.17;;;1.90;;
71566;SDS011;59403;47.456;19.120;2022-07-04T08:53:26;4.07;;;2.05;;
71566;SDS011;59403;47.456;19.120;2022-07-04T08:55:56;3.72;;;2.28;;
71566;SDS011;59403;47.456;19.120;2022-07-04T08:58:41;2.40;;;1.95;;
71566;SDS011;59403;47.456;19.120;2022-07-04T09:01:10;2.30;;;2.10;;
71566;SDS011;59403;47.456;19.120;2022-07-04T09:03:40;2.97;;;2.12;;
71566;SDS011;59403;47.456;19.120;2022-07-04T09:06:10;2.70;;;1.95;;
71566;SDS011;59403;47.456;19.120;2022-07-04T09:08:38;3.05;;;2.00;;
71566;SDS011;59403;47.456;19.120;2022-07-04T09:11:05;3.17;;;2.00;;
71566;SDS011;59403;47.456;19.120;2022-07-04T09:13:33;4.77;;;2.20;;
71566;SDS011;59403;47.456;19.120;2022-07-04T09:16:00;2.00;;;1.65;;
71566;SDS011;59403;47.456;19.120;2022-07-04T09:18:28;2.55;;;2.33;;
71566;SDS011;59403;47.456;19.120;2022-07-04T09:20:59;2.10;;;1.95;;
71566;SDS011;59403;47.456;19.120;2022-07-04T09:23:29;3.97;;;2.20;;
71566;SDS011;59403;47.456;19.120;2022-07-04T09:26:07;3.57;;;1.60;;
71566;SDS011;59403;47.456;19.120;2022-07-04T09:28:36;4.53;;;2.10;;
71566;SDS011;59403;47.456;19.120;2022-07-04T09:31:12;3.87;;;2.17;;
71566;SDS011;59403;47.456;19.120;2022-07-04T09:36:25;2.80;;;2.05;;
71566;SDS011;59403;47.456;19.120;2022-07-04T09:39:11;2.60;;;2.30;;
71566;SDS011;59403;47.456;19.120;2022-07-04T09:41:52;2.45;;;2.08;;
71566;SDS011;59403;47.456;19.120;2022-07-04T09:44:21;4.07;;;2.33;;
71566;SDS011;59403;47.456;19.120;2022-07-04T09:46:49;3.08;;;2.33;;
71566;SDS011;59403;47.456;19.120;2022-07-04T09:49:16;2.58;;;2.37;;
71566;SDS011;59403;47.456;19.120;2022-07-04T09:51:44;2.57;;;2.20;;
71566;SDS011;59403;47.456;19.120;2022-07-04T09:54:23;2.83;;;2.10;;
71566;SDS011;59403;47.456;19.120;2022-07-04T09:56:56;7.25;;;2.42;;
71566;SDS011;59403;47.456;19.120;2022-07-04T09:59:38;5.72;;;2.70;;
71566;SDS011;59403;47.456;19.120;2022-07-04T10:02:07;3.00;;;2.58;;
71566;SDS011;59403;47.456;19.120;2022-07-04T10:04:41;2.57;;;2.30;;
71566;SDS011;59403;47.456;19.120;2022-07-04T10:07:09;4.15;;;2.65;;
71566;SDS011;59403;47.456;19.120;2022-07-04T10:09:37;3.03;;;2.10;;
71566;SDS011;59403;47.456;19.120;2022-07-04T10:12:04;2.55;;;2.20;;
71566;SDS011;59403;47.456;19.120;2022-07-04T10:14:35;3.83;;;2.90;;
71566;SDS011;59403;47.456;19.120;2022-07-04T10:17:02;7.57;;;2.80;;
71566;SDS011;59403;47.456;19.120;2022-07-04T10:19:30;3.75;;;2.72;;
71566;SDS011;59403;47.456;19.120;2022-07-04T10:22:00;3.37;;;2.65;;
71566;SDS011;59403;47.456;19.120;2022-07-04T10:24:29;2.80;;;2.58;;
71566;SDS011;59403;47.456;19.120;2022-07-04T10:26:58;4.15;;;2.67;;
71566;SDS011;59403;47.456;19.120;2022-07-04T10:29:25;3.67;;;2.47;;
71566;SDS011;59403;47.456;19.120;2022-07-04T10:31:52;4.10;;;2.25;;
71566;SDS011;59403;47.456;19.120;2022-07-04T10:34:20;3.17;;;2.50;;
71566;SDS011;59403;47.456;19.120;2022-07-04T10:36:50;3.10;;;2.60;;
71566;SDS011;59403;47.456;19.120;2022-07-04T10:39:21;4.95;;;2.83;;
71566;SDS011;59403;47.456;19.120;2022-07-04T10:41:55;4.30;;;2.83;;
71566;SDS011;59403;47.456;19.120;2022-07-04T10:44:25;3.47;;;2.80;;
71566;SDS011;59403;47.456;19.120;2022-07-04T10:46:52;6.10;;;2.20;;
71566;SDS011;59403;47.456;19.120;2022-07-04T10:49:26;3.87;;;2.28;;
71566;SDS011;59403;47.456;19.120;2022-07-04T10:51:55;3.05;;;2.30;;
71566;SDS011;59403;47.456;19.120;2022-07-04T10:54:34;3.83;;;2.30;;
71566;SDS011;59403;47.456;19.120;2022-07-04T10:57:11;3.55;;;2.45;;
71566;SDS011;59403;47.456;19.120;2022-07-04T11:00:02;3.72;;;2.03;;
71566;SDS011;59403;47.456;19.120;2022-07-04T11:02:33;2.90;;;2.60;;
71566;SDS011;59403;47.456;19.120;2022-07-04T11:05:24;3.47;;;2.65;;
71566;SDS011;59403;47.456;19.120;2022-07-04T11:08:16;2.37;;;2.17;;
71566;SDS011;59403;47.456;19.120;2022-07-04T11:10:43;1.70;;;1.42;;
71566;SDS011;59403;47.456;19.120;2022-07-04T11:13:31;2.83;;;1.95;;
71566;SDS011;59403;47.456;19.120;2022-07-04T11:16:12;4.22;;;2.30;;
71566;SDS011;59403;47.456;19.120;2022-07-04T11:18:46;3.60;;;2.17;;
71566;SDS011;59403;47.456;19.120;2022-07-04T11:24:17;2.83;;;2.60;;
71566;SDS011;59403;47.456;19.120;2022-07-04T11:26:50;3.67;;;1.90;;
71566;SDS011;59403;47.456;19.120;2022-07-04T11:29:18;3.00;;;2.45;;
71566;SDS011;59403;47.456;19.120;2022-07-04T11:31:45;8.98;;;2.35;;
71566;SDS011;59403;47.456;19.120;2022-07-04T11:34:13;2.73;;;2.10;;
71566;SDS011;59403;47.456;19.120;2022-07-04T11:36:41;2.10;;;1.92;;
71566;SDS011;59403;47.456;19.120;2022-07-04T11:39:09;8.23;;;2.10;;
71566;SDS011;59403;47.456;19.120;2022-07-04T11:41:38;2.83;;;2.30;;
71566;SDS011;59403;47.456;19.120;2022-07-04T11:44:26;4.90;;;2.30;;
71566;SDS011;59403;47.456;19.120;2022-07-04T11:47:12;2.90;;;2.20;;
71566;SDS011;59403;47.456;19.120;2022-07-04T11:49:42;2.95;;;2.28;;
71566;SDS011;59403;47.456;19.120;2022-07-04T11:52:11;2.20;;;2.00;;
71566;SDS011;59403;47.456;19.120;2022-07-04T11:54:43;2.33;;;1.98;;
71566;SDS011;59403;47.456;19.120;2022-07-04T11:57:13;1.67;;;1.58;;
71566;SDS011;59403;47.456;19.120;2022-07-04T11:59:43;2.70;;;2.50;;
71566;SDS011;59403;47.456;19.120;2022-07-04T12:02:18;2.53;;;1.80;;
71566;SDS011;59403;47.456;19.120;2022-07-04T12:04:45;2.10;;;1.90;;
71566;SDS011;59403;47.456;19.120;2022-07-04T12:07:13;3.37;;;2.60;;
71566;SDS011;59403;47.456;19.120;2022-07-04T12:09:42;2.12;;;1.92;;
71566;SDS011;59403;47.456;19.120;2022-07-04T12:12:09;3.23;;;2.33;;
71566;SDS011;59403;47.456;19.120;2022-07-04T12:14:37;6.87;;;2.10;;
71566;SDS011;59403;47.456;19.120;2022-07-04T12:17:09;2.90;;;1.87;;
71566;SDS011;59403;47.456;19.120;2022-07-04T12:19:49;3.60;;;1.83;;
71566;SDS011;59403;47.456;19.120;2022-07-04T12:22:27;3.58;;;1.62;;
71566;SDS011;59403;47.456;19.120;2022-07-04T12:24:59;2.60;;;2.07;;
71566;SDS011;59403;47.456;19.120;2022-07-04T12:27:27;1.62;;;1.52;;
71566;SDS011;59403;47.456;19.120;2022-07-04T12:29:55;2.37;;;1.52;;
71566;SDS011;59403;47.456;19.120;2022-07-04T12:32:31;3.17;;;1.77;;
71566;SDS011;59403;47.456;19.120;2022-07-04T12:35:10;2.37;;;1.92;;
71566;SDS011;59403;47.456;19.120;2022-07-04T12:38:03;2.33;;;1.70;;
71566;SDS011;59403;47.456;19.120;2022-07-04T12:40:32;2.97;;;2.10;;
71566;SDS011;59403;47.456;19.120;2022-07-04T12:42:59;3.97;;;1.90;;
71566;SDS011;59403;47.456;19.120;2022-07-04T12:45:42;1.90;;;1.80;;
71566;SDS011;59403;47.456;19.120;2022-07-04T12:48:17;2.22;;;2.03;;
71566;SDS011;59403;47.456;19.120;2022-07-04T12:50:55;3.20;;;1.90;;
71566;SDS011;59403;47.456;19.120;2022-07-04T12:53:40;2.08;;;1.85;;
71566;SDS011;59403;47.456;19.120;2022-07-04T12:56:10;2.95;;;2.10;;
71566;SDS011;59403;47.456;19.120;2022-07-04T12:58:53;2.92;;;1.95;;
71566;SDS011;59403;47.456;19.120;2022-07-04T13:01:19;4.22;;;2.17;;
71566;SDS011;59403;47.456;19.120;2022-07-04T13:03:48;2.73;;;1.97;;
71566;SDS011;59403;47.456;19.120;2022-07-04T13:06:15;3.58;;;1.92;;
71566;SDS011;59403;47.456;19.120;2022-07-04T13:08:42;4.15;;;1.67;;
71566;SDS011;59403;47.456;19.120;2022-07-04T13:11:09;2.03;;;1.80;;
71566;SDS011;59403;47.456;19.120;2022-07-04T13:14:01;3.50;;;2.10;;
71566;SDS011;59403;47.456;19.120;2022-07-04T13:16:31;2.77;;;2.57;;
71566;SDS011;59403;47.456;19.120;2022-07-04T13:19:09;2.62;;;2.33;;
71566;SDS011;59403;47.456;19.120;2022-07-04T13:21:42;3.90;;;1.92;;
71566;SDS011;59403;47.456;19.120;2022-07-04T13:24:09;2.67;;;2.28;;
71566;SDS011;59403;47.456;19.120;2022-07-04T13:26:36;4.12;;;1.92;;
71566;SDS011;59403;47.456;19.120;2022-07-04T13:29:04;2.93;;;1.80;;
71566;SDS011;59403;47.456;19.120;2022-07-04T13:31:31;2.55;;;2.35;;
71566;SDS011;59403;47.456;19.120;2022-07-04T13:33:58;2.97;;;1.83;;
71566;SDS011;59403;47.456;19.120;2022-07-04T13:36:26;4.15;;;2.15;;
71566;SDS011;59403;47.456;19.120;2022-07-04T13:38:53;5.60;;;2.30;;
71566;SDS011;59403;47.456;19.120;2022-07-04T13:41:21;3.00;;;1.90;;
71566;SDS011;59403;47.456;19.120;2022-07-04T13:43:48;2.55;;;2.35;;
71566;SDS011;59403;47.456;19.120;2022-07-04T13:46:15;4.60;;;2.35;;
71566;SDS011;59403;47.456;19.120;2022-07-04T13:48:41;3.03;;;1.85;;
71566;SDS011;59403;47.456;19.120;2022-07-04T13:51:08;3.15;;;1.58;;
71566;SDS011;59403;47.456;19.120;2022-07-04T13:53:37;1.93;;;1.70;;
71566;SDS011;59403;47.456;19.120;2022-07-04T13:56:03;3.17;;;2.25;;
71566;SDS011;59403;47.456;19.120;2022-07-04T13:58:30;3.37;;;2.70;;
71566;SDS011;59403;47.456;19.120;2022-07-04T14:00:58;2.55;;;2.35;;
71566;SDS011;59403;47.456;19.120;2022-07-04T14:03:30;3.40;;;2.10;;
71566;SDS011;59403;47.456;19.120;2022-07-04T14:06:07;3.70;;;2.40;;
71566;SDS011;59403;47.456;19.120;2022-07-04T14:08:54;2.50;;;2.30;;
71566;SDS011;59403;47.456;19.120;2022-07-04T14:11:37;4.95;;;1.92;;
71566;SDS011;59403;47.456;19.120;2022-07-04T14:14:05;3.80;;;2.37;;
71566;SDS011;59403;47.456;19.120;2022-07-04T14:16:32;3.42;;;2.28;;
71566;SDS011;59403;47.456;19.120;2022-07-04T14:18:59;7.23;;;2.60;;
71566;SDS011;59403;47.456;19.120;2022-07-04T14:21:26;4.00;;;2.22;;
71566;SDS011;59403;47.456;19.120;2022-07-04T14:23:54;4.03;;;2.37;;
71566;SDS011;59403;47.456;19.120;2022-07-04T14:26:21;4.18;;;2.05;;
71566;SDS011;59403;47.456;19.120;2022-07-04T14:28:50;2.33;;;2.15;;
71566;SDS011;59403;47.456;19.120;2022-07-04T14:31:17;7.37;;;2.67;;
71566;SDS011;59403;47.456;19.120;2022-07-04T14:33:44;2.87;;;2.58;;
71566;SDS011;59403;47.456;19.120;2022-07-04T14:36:11;3.75;;;2.30;;
71566;SDS011;59403;47.456;19.120;2022-07-04T14:38:38;3.25;;;1.90;;
71566;SDS011;59403;47.456;19.120;2022-07-04T14:41:07;3.17;;;2.67;;
71566;SDS011;59403;47.456;19.120;2022-07-04T14:43:37;3.80;;;2.43;;
71566;SDS011;59403;47.456;19.120;2022-07-04T14:46:06;5.70;;;2.67;;
71566;SDS011;59403;47.456;19.120;2022-07-04T14:48:36;2.70;;;2.50;;
71566;SDS011;59403;47.456;19.120;2022-07-04T14:51:04;4.75;;;2.15;;
71566;SDS011;59403;47.456;19.120;2022-07-04T14:53:31;2.90;;;2.60;;
71566;SDS011;59403;47.456;19.120;2022-07-04T14:55:58;5.00;;;3.20;;
71566;SDS011;59403;47.456;19.120;2022-07-04T14:58:26;4.10;;;2.80;;
71566;SDS011;59403;47.456;19.120;2022-07-04T15:00:53;3.30;;;2.87;;
71566;SDS011;59403;47.456;19.120;2022-07-04T15:03:21;4.20;;;2.55;;